Aviation Digital Data Service (ADDS)

Output produced by METARs form (0421 UTC 24 January 2019)
found at http://www.aviationweather.gov/metar/data/
 
Forecast for: EDLV (NIEDERRHEIN , DE)
Text: TAF EDLV 231700Z 2318/2418 VRB03KT 8000 SCT020
Forecast period: 1800 UTC 23 January 2019 to 1800 UTC 24 January 2019
Forecast type: FROM: standard forecast or significant change
Winds: variable direction winds at 3 MPH (3 knots; 1.5 m/s)
Visibility: 5 miles (8 km)
Ceiling: at least 12,000 feet AGL
Clouds: scattered clouds at 2000 feet AGL
Weather: no significant weather forecast for this period
Text: TEMPO 2318/2410 BKN012
Forecast period: 1800 UTC 23 January 2019 to 1000 UTC 24 January 2019
Forecast type: TEMPORARY: The following changes expected for less than half the time period
Visibility: missing
Ceiling: 1200 feet AGL
Clouds: broken clouds at 1200 feet AGL
Weather: no significant weather forecast for this period
Text: TEMPO 2400/2410 3500 BR
Forecast period: 0000 to 1000 UTC 24 January 2019
Forecast type: TEMPORARY: The following changes expected for less than half the time period
Visibility: 2.17 miles (3.49 km)
Ceiling: unknown
Clouds: missing
Weather: BR  (mist)